Time;durP1;ratioP1;P1;durP2;ratioP2;P2;SDS_P1;SDS_P2;PMS_P1;PMS_P2;Temp;Humidity;BMP_temperature;BMP_pressure;BME280_temperature;BME280_humidity;BME280_pressure;Samples;Min_cycle;Max_cycle;Signal;HPM_P1;HPM_P2
2020/12/14 00:02:05;;;;;;;14.13;7.73;;;;;;;6.30;66.96;96375.19;5065026;28;20499;-69
2020/12/14 00:04:30;;;;;;;10.37;7.37;;;;;;;6.20;67.30;96367.41;5058960;28;20641;-69
2020/12/14 00:06:56;;;;;;;7.90;7.10;;;;;;;6.21;67.27;96361.25;5069968;28;20493;-70
2020/12/14 00:09:23;;;;;;;10.10;8.07;;;;;;;6.18;67.27;96348.53;5071069;28;20187;-71
2020/12/14 00:11:50;;;;;;;10.67;7.90;;;;;;;6.17;67.26;96333.91;5071412;28;20656;-70
2020/12/14 00:14:15;;;;;;;10.00;7.57;;;;;;;6.13;67.18;96327.34;5071267;28;20454;-70
2020/12/14 00:16:42;;;;;;;9.30;7.70;;;;;;;6.08;67.10;96326.97;5072626;28;20879;-71
2020/12/14 00:19:08;;;;;;;9.87;8.60;;;;;;;6.07;67.31;96315.75;5070578;28;20912;-69
2020/12/14 00:21:34;;;;;;;10.17;7.20;;;;;;;5.99;67.53;96311.28;5069611;28;20787;-69
2020/12/14 00:23:59;;;;;;;9.10;7.03;;;;;;;5.94;67.50;96305.63;5071086;28;20441;-69
2020/12/14 00:26:25;;;;;;;10.60;8.00;;;;;;;5.97;67.53;96304.56;5073244;28;20656;-70
2020/12/14 00:28:51;;;;;;;11.80;8.70;;;;;;;5.86;68.04;96300.34;5073366;28;20228;-69
2020/12/14 00:31:17;;;;;;;9.50;7.60;;;;;;;5.83;67.87;96296.28;5066014;28;20178;-69
2020/12/14 00:33:45;;;;;;;11.40;7.83;;;;;;;5.73;68.59;96297.25;5064032;28;20203;-70
2020/12/14 00:36:11;;;;;;;10.70;7.93;;;;;;;5.78;68.34;96293.28;5058431;28;20486;-69
2020/12/14 00:38:37;;;;;;;8.80;7.47;;;;;;;5.82;67.88;96301.59;5074348;28;20542;-68
2020/12/14 00:41:03;;;;;;;10.10;7.60;;;;;;;5.77;67.89;96307.22;5075463;28;20432;-70
2020/12/14 00:43:29;;;;;;;9.97;7.50;;;;;;;5.82;67.99;96314.59;5074248;28;20539;-70
2020/12/14 00:45:55;;;;;;;10.43;7.40;;;;;;;5.72;67.72;96329.44;5072990;28;20562;-70
2020/12/14 00:48:21;;;;;;;9.87;8.37;;;;;;;5.63;68.48;96331.94;5075331;28;20420;-69
2020/12/14 00:50:47;;;;;;;8.73;7.20;;;;;;;5.70;68.10;96337.38;5079729;28;20191;-70
2020/12/14 00:53:12;;;;;;;9.07;7.30;;;;;;;5.66;68.49;96352.44;5079427;28;20208;-70
2020/12/14 00:55:39;;;;;;;12.53;8.20;;;;;;;5.57;68.53;96357.69;5082667;28;20236;-70
2020/12/14 00:58:05;;;;;;;8.33;7.43;;;;;;;5.60;68.30;96360.81;5071207;28;20206;-70
2020/12/14 01:00:31;;;;;;;8.40;7.20;;;;;;;5.61;67.84;96362.44;5071126;28;20517;-70
2020/12/14 01:02:57;;;;;;;12.57;7.67;;;;;;;5.58;67.95;96359.31;5068085;28;20205;-70
2020/12/14 01:05:22;;;;;;;8.30;6.67;;;;;;;5.53;68.33;96354.53;5068934;28;20424;-70
2020/12/14 01:07:48;;;;;;;10.50;7.70;;;;;;;5.54;68.29;96353.59;5073854;28;20232;-69
2020/12/14 01:10:14;;;;;;;9.87;7.57;;;;;;;5.52;68.51;96352.91;5073359;28;20187;-69
2020/12/14 01:12:39;;;;;;;9.33;7.43;;;;;;;5.49;67.89;96360.97;5071384;28;20194;-70
2020/12/14 01:15:05;;;;;;;9.07;7.60;;;;;;;5.41;68.37;96360.88;5072188;28;20653;-70
2020/12/14 01:17:32;;;;;;;7.00;6.30;;;;;;;5.44;68.21;96365.75;5072878;28;20198;-69
2020/12/14 01:19:58;;;;;;;9.97;7.73;;;;;;;5.47;68.43;96360.28;5065659;28;20887;-69
2020/12/14 01:22:23;;;;;;;8.83;7.00;;;;;;;5.49;68.09;96355.78;5070344;28;20448;-70
2020/12/14 01:24:49;;;;;;;9.37;7.47;;;;;;;5.47;68.26;96362.91;5071783;28;20189;-69
2020/12/14 01:27:15;;;;;;;7.50;6.40;;;;;;;5.45;67.98;96357.00;5073304;28;20178;-70
2020/12/14 01:29:40;;;;;;;10.00;7.10;;;;;;;5.41;68.21;96353.06;5063168;28;20178;-69
2020/12/14 01:32:06;;;;;;;7.40;6.60;;;;;;;5.46;68.13;96343.06;5072186;28;20428;-69
2020/12/14 01:34:32;;;;;;;10.83;7.10;;;;;;;5.45;67.98;96339.66;5061712;28;20269;-68
2020/12/14 01:36:58;;;;;;;8.10;7.17;;;;;;;5.46;68.45;96333.50;5071341;28;20189;-69
2020/12/14 01:39:23;;;;;;;11.63;7.50;;;;;;;5.41;68.01;96334.88;5071794;28;20205;-70
2020/12/14 01:41:49;;;;;;;8.27;7.00;;;;;;;5.33;68.48;96339.00;5071474;28;20182;-70
2020/12/14 01:44:15;;;;;;;8.33;7.03;;;;;;;5.37;68.11;96339.53;5063090;28;20214;-70
2020/12/14 01:46:42;;;;;;;11.60;7.70;;;;;;;5.40;68.08;96334.03;5055113;28;20258;-69
2020/12/14 01:49:09;;;;;;;9.27;7.40;;;;;;;5.41;68.33;96342.69;5071205;28;20178;-69
2020/12/14 01:51:36;;;;;;;9.63;7.33;;;;;;;5.40;68.90;96338.44;5070835;28;20429;-69
2020/12/14 01:54:23;;;;;;;7.57;6.33;;;;;;;5.41;68.49;96342.69;5072092;28;20453;-68
2020/12/14 01:56:49;;;;;;;7.80;6.30;;;;;;;5.38;68.73;96347.19;5071338;28;20435;-70
2020/12/14 01:59:15;;;;;;;8.43;6.90;;;;;;;5.30;68.38;96346.25;5072591;28;20429;-70
2020/12/14 02:01:40;;;;;;;10.30;7.23;;;;;;;5.37;68.28;96352.50;5068021;28;20626;-69
2020/12/14 02:04:06;;;;;;;10.40;7.70;;;;;;;5.42;68.81;96362.50;5060062;28;20217;-70
2020/12/14 02:06:32;;;;;;;9.27;7.27;;;;;;;5.46;68.33;96359.50;5070924;28;20834;-70
2020/12/14 02:08:58;;;;;;;7.37;6.50;;;;;;;5.45;68.32;96354.41;5072238;28;20192;-69
2020/12/14 02:11:23;;;;;;;9.30;7.13;;;;;;;5.44;68.73;96342.38;5070930;28;20586;-69
2020/12/14 02:13:49;;;;;;;10.83;7.20;;;;;;;5.44;68.41;96337.19;5072435;28;20204;-70
2020/12/14 02:16:15;;;;;;;8.60;6.60;;;;;;;5.46;68.44;96330.06;5062833;28;20239;-71
2020/12/14 02:18:41;;;;;;;9.23;7.53;;;;;;;5.39;68.62;96327.22;5071382;28;20653;-69
2020/12/14 02:21:06;;;;;;;10.53;7.60;;;;;;;5.37;68.82;96329.97;5072363;28;20188;-69
2020/12/14 02:23:32;;;;;;;9.10;8.00;;;;;;;5.44;68.56;96332.81;5069932;28;20254;-70
2020/12/14 02:25:58;;;;;;;8.97;7.50;;;;;;;5.37;68.30;96332.56;5070402;28;20663;-69
2020/12/14 02:28:23;;;;;;;9.07;7.60;;;;;;;5.34;68.84;96340.63;5068076;28;20628;-71
2020/12/14 02:30:49;;;;;;;9.47;7.50;;;;;;;5.31;69.22;96338.31;5067931;28;20231;-70
2020/12/14 02:33:15;;;;;;;9.40;7.60;;;;;;;5.34;69.02;96327.63;5069429;28;20285;-69
2020/12/14 02:35:40;;;;;;;9.60;7.60;;;;;;;5.34;68.62;96322.44;5064698;28;20261;-69
2020/12/14 02:38:06;;;;;;;9.40;7.07;;;;;;;5.35;68.32;96321.47;5070758;28;20206;-69
2020/12/14 02:40:35;;;;;;;7.53;6.70;;;;;;;5.33;68.34;96326.00;5070938;28;20185;-69
2020/12/14 02:43:00;;;;;;;8.27;6.90;;;;;;;5.37;68.19;96314.38;5070492;28;20227;-69
2020/12/14 02:45:26;;;;;;;9.43;7.30;;;;;;;5.37;68.67;96316.97;5065424;28;20426;-69
2020/12/14 02:47:52;;;;;;;9.40;7.33;;;;;;;5.35;68.39;96323.28;5067577;28;20171;-69
2020/12/14 02:50:17;;;;;;;10.13;7.20;;;;;;;5.36;68.30;96317.09;5053927;28;20200;-69
2020/12/14 02:52:43;;;;;;;9.23;7.40;;;;;;;5.30;68.37;96315.06;5062856;28;20198;-69
2020/12/14 02:55:09;;;;;;;9.23;7.00;;;;;;;5.26;68.92;96304.16;5065982;28;20266;-70
2020/12/14 02:57:34;;;;;;;9.40;7.70;;;;;;;5.34;67.86;96308.66;5071774;28;20255;-70
2020/12/14 03:00:00;;;;;;;7.80;6.70;;;;;;;5.33;68.04;96304.41;5070731;28;20202;-69
2020/12/14 03:02:26;;;;;;;11.93;7.67;;;;;;;5.31;68.36;96301.13;5066103;28;20204;-69
2020/12/14 03:04:51;;;;;;;8.30;7.07;;;;;;;5.35;68.02;96292.09;5061615;28;20174;-68
2020/12/14 03:07:17;;;;;;;10.10;6.97;;;;;;;5.32;68.64;96282.78;5070974;28;20174;-69
2020/12/14 03:09:43;;;;;;;8.50;6.13;;;;;;;5.37;68.77;96279.75;5064139;28;20232;-68
2020/12/14 03:12:09;;;;;;;8.93;6.97;;;;;;;5.24;68.49;96269.69;5070871;28;20179;-69
2020/12/14 03:14:35;;;;;;;9.07;6.97;;;;;;;5.34;68.14;96264.47;5069893;28;20190;-69
2020/12/14 03:17:01;;;;;;;8.90;7.30;;;;;;;5.27;69.18;96273.78;5071228;28;20421;-69
2020/12/14 03:19:26;;;;;;;8.13;7.30;;;;;;;5.32;68.81;96275.00;5069836;28;20236;-68
2020/12/14 03:21:52;;;;;;;10.20;7.20;;;;;;;5.30;68.15;96278.69;5070997;28;20453;-68
2020/12/14 03:24:18;;;;;;;8.03;6.87;;;;;;;5.23;68.83;96273.25;5072015;28;20202;-69
2020/12/14 03:26:47;;;;;;;9.90;7.37;;;;;;;5.24;68.47;96274.88;5066393;28;20482;-70
2020/12/14 03:29:13;;;;;;;8.57;7.07;;;;;;;5.20;68.62;96269.16;5070496;28;20180;-69
2020/12/14 03:31:39;;;;;;;7.50;6.60;;;;;;;5.21;68.38;96262.19;5064527;28;20424;-69
2020/12/14 03:34:04;;;;;;;8.13;6.90;;;;;;;5.23;69.07;96268.06;5059627;28;20205;-69
2020/12/14 03:36:30;;;;;;;8.60;6.50;;;;;;;5.28;68.55;96271.06;5070257;28;20665;-70
2020/12/14 03:38:56;;;;;;;9.20;7.07;;;;;;;5.28;68.33;96265.84;5070946;28;20202;-70
2020/12/14 03:41:23;;;;;;;7.90;6.13;;;;;;;5.18;68.92;96273.69;5071308;28;20549;-70
2020/12/14 03:43:50;;;;;;;8.90;6.47;;;;;;;5.15;68.70;96273.94;5070689;28;20716;-70
2020/12/14 03:46:21;;;;;;;8.67;6.33;;;;;;;5.18;68.32;96275.44;5071763;28;20439;-70
2020/12/14 03:48:47;;;;;;;8.53;6.80;;;;;;;5.18;68.41;96275.44;5071706;28;20421;-69
2020/12/14 03:51:13;;;;;;;8.70;6.90;;;;;;;5.21;68.64;96282.97;5070652;28;20915;-69
2020/12/14 03:53:39;;;;;;;9.67;6.50;;;;;;;5.20;68.23;96291.72;5069013;28;20444;-69
2020/12/14 03:56:05;;;;;;;7.87;6.63;;;;;;;5.17;68.48;96286.78;5068646;28;20421;-71
2020/12/14 03:58:31;;;;;;;7.13;6.23;;;;;;;5.14;68.33;96292.28;5070944;28;20244;-68
2020/12/14 04:00:57;;;;;;;8.03;6.67;;;;;;;5.16;68.16;96287.78;5074695;28;20185;-68
2020/12/14 04:03:24;;;;;;;11.27;6.80;;;;;;;5.16;68.35;96282.59;5064676;28;20432;-71
2020/12/14 04:05:50;;;;;;;8.10;6.90;;;;;;;5.12;68.90;96270.81;5068114;28;20204;-70
2020/12/14 04:08:16;;;;;;;9.10;7.00;;;;;;;5.20;68.73;96278.72;5073403;28;20420;-69
2020/12/14 04:10:43;;;;;;;7.93;6.80;;;;;;;5.21;68.81;96267.38;5072963;28;20174;-69
2020/12/14 04:13:08;;;;;;;8.67;6.37;;;;;;;5.21;68.33;96275.16;5072647;28;20464;-70
2020/12/14 04:15:34;;;;;;;8.50;7.10;;;;;;;5.25;68.32;96276.53;5073957;28;20463;-70
2020/12/14 04:18:00;;;;;;;8.83;7.07;;;;;;;5.18;68.69;96275.44;5074195;28;20242;-70
2020/12/14 04:20:26;;;;;;;9.03;6.83;;;;;;;5.15;68.75;96286.94;5074530;28;20186;-70
2020/12/14 04:22:51;;;;;;;8.13;6.77;;;;;;;5.12;68.52;96286.41;5069999;28;20285;-71
2020/12/14 04:25:17;;;;;;;10.03;7.90;;;;;;;5.16;68.64;96279.97;5072831;28;20842;-70
2020/12/14 04:27:44;;;;;;;9.03;7.00;;;;;;;5.19;68.47;96292.66;5074160;28;20183;-70
2020/12/14 04:30:09;;;;;;;10.63;7.47;;;;;;;5.18;68.38;96285.81;5072521;28;20425;-68
2020/12/14 04:32:35;;;;;;;8.57;7.13;;;;;;;5.18;68.34;96291.03;5072622;28;20441;-69
2020/12/14 04:35:01;;;;;;;7.93;6.80;;;;;;;5.12;68.44;96289.00;5062754;28;20452;-69
2020/12/14 04:37:27;;;;;;;9.03;7.30;;;;;;;5.10;68.68;96283.97;5072838;28;20481;-67
2020/12/14 04:39:52;;;;;;;9.50;7.07;;;;;;;5.12;68.52;96286.41;5074210;28;20236;-70
2020/12/14 04:42:18;;;;;;;9.37;7.87;;;;;;;5.03;68.95;96283.69;5073954;28;20704;-70
2020/12/14 04:44:45;;;;;;;8.93;7.13;;;;;;;5.02;68.87;96284.66;5072516;28;20525;-71
2020/12/14 04:47:11;;;;;;;9.93;7.80;;;;;;;5.00;68.65;96294.38;5057265;28;20220;-69
2020/12/14 04:49:39;;;;;;;8.20;6.93;;;;;;;5.02;68.50;96287.25;5072603;28;20425;-71
2020/12/14 04:52:05;;;;;;;9.83;7.50;;;;;;;5.03;68.91;96291.50;5071947;28;20448;-69
2020/12/14 04:54:31;;;;;;;11.57;8.10;;;;;;;5.01;68.44;96280.41;5058095;28;20473;-70
2020/12/14 04:57:04;;;;;;;9.93;8.07;;;;;;;5.00;69.29;96281.38;5069007;28;20182;-69
2020/12/14 04:59:29;;;;;;;10.00;7.67;;;;;;;4.97;69.23;96284.25;5074356;28;20676;-69
2020/12/14 05:02:03;;;;;;;11.90;7.97;;;;;;;4.95;68.85;96293.94;5068871;28;20436;-69
2020/12/14 05:04:29;;;;;;;11.20;8.20;;;;;;;4.80;69.01;96288.38;5073458;28;20249;-69
2020/12/14 05:06:56;;;;;;;11.33;7.90;;;;;;;4.87;69.30;96283.44;5073772;28;20517;-70
2020/12/14 05:09:22;;;;;;;8.50;7.10;;;;;;;4.83;69.26;96280.31;5073131;28;20186;-69
2020/12/14 05:11:48;;;;;;;12.30;8.80;;;;;;;4.92;68.90;96273.44;5071271;28;20429;-69
2020/12/14 05:14:19;;;;;;;12.30;8.83;;;;;;;4.91;69.08;96279.63;5072471;28;20245;-69
2020/12/14 05:16:45;;;;;;;11.67;8.67;;;;;;;4.92;69.08;96283.84;5073361;28;20424;-69
2020/12/14 05:19:27;;;;;;;11.33;7.83;;;;;;;4.93;68.91;96280.28;5072776;28;20455;-70
2020/12/14 05:22:00;;;;;;;11.23;8.37;;;;;;;4.97;68.61;96278.25;5072752;28;20756;-69
2020/12/14 05:24:28;;;;;;;15.53;8.73;;;;;;;4.87;68.67;96273.88;5071576;28;20825;-69
2020/12/14 05:26:55;;;;;;;12.50;8.80;;;;;;;4.82;69.04;96272.66;5061504;28;20428;-69
2020/12/14 05:29:29;;;;;;;11.80;8.00;;;;;;;4.92;68.49;96281.25;5072479;28;20416;-68
2020/12/14 05:32:08;;;;;;;10.83;7.90;;;;;;;4.90;68.98;96281.38;5071441;28;20484;-69
2020/12/14 05:34:38;;;;;;;13.93;8.93;;;;;;;4.80;69.06;96278.00;5071458;28;20427;-69
2020/12/14 05:37:06;;;;;;;11.70;8.70;;;;;;;4.81;69.41;96281.41;5071657;28;20425;-68
2020/12/14 05:39:33;;;;;;;10.43;8.37;;;;;;;4.85;68.99;96278.38;5073030;28;20424;-70
2020/12/14 05:42:10;;;;;;;12.67;8.30;;;;;;;4.89;69.30;96282.34;5070723;28;20436;-68
2020/12/14 05:44:37;;;;;;;13.13;8.77;;;;;;;4.94;68.56;96281.13;5070586;28;20467;-71
2020/12/14 05:47:02;;;;;;;14.67;9.80;;;;;;;4.95;68.36;96280.16;5072475;28;20432;-70
2020/12/14 05:49:28;;;;;;;11.77;8.70;;;;;;;4.84;69.02;96289.75;5072311;28;20475;-69
2020/12/14 05:52:01;;;;;;;13.90;9.10;;;;;;;4.75;69.56;96294.00;5072348;28;20221;-68
2020/12/14 05:54:35;;;;;;;12.37;8.80;;;;;;;4.71;69.71;96295.22;5070946;28;20179;-69
2020/12/14 05:57:05;;;;;;;15.53;9.60;;;;;;;4.75;69.61;96295.75;5069659;28;20478;-68
2020/12/14 05:59:34;;;;;;;15.00;9.77;;;;;;;4.79;69.26;96293.72;5072497;28;20436;-69
2020/12/14 06:02:03;;;;;;;14.87;10.13;;;;;;;4.74;69.29;96289.75;5032409;28;20457;-67
2020/12/14 06:04:34;;;;;;;13.00;8.90;;;;;;;4.81;69.39;96296.97;5072104;28;20486;-68
2020/12/14 06:07:04;;;;;;;14.47;9.03;;;;;;;4.83;68.96;96300.25;5070649;28;20420;-69
2020/12/14 06:09:40;;;;;;;16.30;9.43;;;;;;;4.88;69.19;96282.50;5072744;28;20490;-68
2020/12/14 06:12:10;;;;;;;12.03;9.10;;;;;;;4.90;68.73;96283.19;5071532;28;20516;-69
2020/12/14 06:14:39;;;;;;;17.13;10.57;;;;;;;4.84;69.19;96283.72;5054863;28;20793;-69
2020/12/14 06:17:11;;;;;;;15.13;10.20;;;;;;;4.87;69.16;96289.44;5072489;28;20799;-70
2020/12/14 06:19:38;;;;;;;14.87;10.20;;;;;;;4.87;68.88;96284.25;5071494;28;20802;-69
2020/12/14 06:22:06;;;;;;;13.73;9.43;;;;;;;4.76;70.07;96290.44;5072352;28;20971;-68
2020/12/14 06:24:32;;;;;;;18.80;11.00;;;;;;;4.70;69.89;96287.56;5052157;28;20420;-68
2020/12/14 06:26:58;;;;;;;17.37;11.03;;;;;;;4.76;69.86;96282.66;5071340;28;20424;-68
2020/12/14 06:29:35;;;;;;;15.77;10.07;;;;;;;4.64;69.93;96283.75;5073165;28;20546;-69
2020/12/14 06:32:02;;;;;;;17.00;11.57;;;;;;;4.50;71.15;96281.56;5053324;28;20911;-68
2020/12/14 06:34:37;;;;;;;15.87;10.53;;;;;;;4.59;70.68;96283.34;5072479;28;20895;-70
2020/12/14 06:37:03;;;;;;;18.50;10.70;;;;;;;4.63;70.33;96289.91;5070542;28;20436;-69
2020/12/14 06:39:30;;;;;;;14.00;9.47;;;;;;;4.62;70.46;96293.44;5073230;28;20437;-68
2020/12/14 06:42:26;;;;;;;19.80;12.33;;;;;;;4.56;71.12;96288.78;5071825;28;20425;-68
2020/12/14 06:44:51;;;;;;;14.03;10.07;;;;;;;4.52;71.09;96295.22;5069095;28;20463;-68
2020/12/14 06:47:18;;;;;;;15.60;11.07;;;;;;;4.65;69.93;96285.41;5070042;28;20409;-70
2020/12/14 06:49:46;;;;;;;16.07;10.70;;;;;;;4.74;69.93;96291.50;5053130;28;20721;-71
2020/12/14 06:52:12;;;;;;;15.67;11.27;;;;;;;4.72;70.14;96289.06;5067464;28;20512;-70
2020/12/14 06:54:49;;;;;;;18.07;11.13;;;;;;;4.71;69.83;96290.03;5057333;28;20436;-72
2020/12/14 06:57:19;;;;;;;19.83;11.37;;;;;;;4.65;70.15;96295.78;5058577;28;20225;-69
2020/12/14 06:59:54;;;;;;;15.83;10.50;;;;;;;4.68;70.14;96295.47;5066855;28;20420;-70
2020/12/14 07:02:34;;;;;;;18.57;11.50;;;;;;;4.71;70.10;96295.22;5044774;28;20432;-70
2020/12/14 07:05:00;;;;;;;16.60;11.20;;;;;;;4.56;69.94;96297.41;5058773;28;20460;-71
2020/12/14 07:07:26;;;;;;;15.57;10.40;;;;;;;4.65;70.65;96306.16;5067253;28;20421;-70
2020/12/14 07:09:52;;;;;;;15.30;10.13;;;;;;;4.69;69.95;96302.31;5057276;28;20249;-70
2020/12/14 07:12:17;;;;;;;16.33;10.97;;;;;;;4.56;70.36;96306.97;5055590;28;20183;-70
2020/12/14 07:14:50;;;;;;;17.60;11.00;;;;;;;4.78;69.62;96312.84;5069060;28;20194;-71
2020/12/14 07:17:22;;;;;;;16.77;10.70;;;;;;;4.92;69.63;96312.41;5068732;28;20236;-70
2020/12/14 07:19:49;;;;;;;14.60;9.87;;;;;;;4.90;69.54;96317.75;5068134;28;20781;-72
2020/12/14 07:22:19;;;;;;;16.63;11.10;;;;;;;4.95;69.63;96317.31;5071209;28;20443;-71
2020/12/14 07:25:10;;;;;;;17.80;11.10;;;;;;;4.99;68.88;96308.31;5069881;28;20417;-69
2020/12/14 07:27:35;;;;;;;18.50;11.00;;;;;;;5.02;68.73;96312.38;5071097;28;20508;-70
2020/12/14 07:30:08;;;;;;;16.40;11.10;;;;;;;4.99;69.24;96321.28;5071015;28;20516;-70
2020/12/14 07:32:34;;;;;;;19.27;12.43;;;;;;;4.89;69.33;96318.69;5070926;28;20375;-69
2020/12/14 07:35:00;;;;;;;19.03;12.70;;;;;;;4.92;69.22;96318.44;5065338;28;20453;-71
2020/12/14 07:37:26;;;;;;;19.60;12.93;;;;;;;4.94;69.46;96320.06;5074806;28;20537;-69
2020/12/14 07:39:52;;;;;;;17.87;12.00;;;;;;;5.00;69.01;96316.91;5065541;28;20193;-70
2020/12/14 07:42:29;;;;;;;19.70;12.20;;;;;;;5.05;69.27;96328.50;5075030;28;20178;-70
2020/12/14 07:45:14;;;;;;;18.90;11.50;;;;;;;5.15;69.43;96330.28;5073359;28;20521;-69
2020/12/14 07:47:41;;;;;;;15.90;10.63;;;;;;;5.20;68.46;96322.88;5058079;28;20968;-70
2020/12/14 07:50:13;;;;;;;18.67;12.40;;;;;;;5.14;68.98;96320.84;5057362;28;20424;-69
2020/12/14 07:52:39;;;;;;;17.30;12.30;;;;;;;5.25;68.72;96325.88;5056132;28;20598;-71
2020/12/14 07:55:07;;;;;;;18.20;11.53;;;;;;;5.29;68.62;96329.84;5073681;28;20448;-70
2020/12/14 07:57:36;;;;;;;19.00;12.47;;;;;;;5.21;68.56;96325.34;5074655;28;20468;-69
2020/12/14 08:00:07;;;;;;;19.63;11.60;;;;;;;5.32;68.10;96324.34;5073692;28;20427;-69
2020/12/14 08:02:33;;;;;;;16.17;11.53;;;;;;;5.43;68.33;96330.34;5068185;28;20484;-69
2020/12/14 08:05:02;;;;;;;17.63;11.93;;;;;;;5.41;68.26;96332.28;5069177;28;20876;-69
2020/12/14 08:07:36;;;;;;;19.40;12.30;;;;;;;5.52;67.68;96329.50;5074287;28;20421;-71
2020/12/14 08:10:03;;;;;;;19.90;12.23;;;;;;;5.40;67.67;96323.66;5055906;28;20507;-70
2020/12/14 08:12:29;;;;;;;15.77;10.67;;;;;;;5.44;67.99;96325.03;5073079;28;20538;-71
2020/12/14 08:14:55;;;;;;;17.93;11.33;;;;;;;5.48;68.04;96333.34;5073363;28;20457;-70
2020/12/14 08:17:21;;;;;;;18.67;12.50;;;;;;;5.44;68.03;96326.78;5074204;28;20453;-70
2020/12/14 08:19:47;;;;;;;16.90;12.20;;;;;;;5.57;67.97;96322.09;5074017;28;20419;-71
2020/12/14 08:22:13;;;;;;;16.20;10.90;;;;;;;5.54;67.93;96322.41;5074789;28;20435;-71
2020/12/14 08:24:39;;;;;;;19.00;12.43;;;;;;;5.65;67.70;96327.41;5074966;28;20821;-69
2020/12/14 08:27:07;;;;;;;15.77;11.90;;;;;;;5.63;67.38;96311.13;5074542;28;20179;-70
2020/12/14 08:29:34;;;;;;;18.30;11.67;;;;;;;5.63;67.43;96311.13;5073935;28;20454;-70
2020/12/14 08:32:01;;;;;;;19.60;11.57;;;;;;;5.82;66.98;96314.59;5074418;28;20456;-69
2020/12/14 08:34:29;;;;;;;15.10;11.17;;;;;;;5.63;68.01;96318.94;5072788;28;20463;-70
2020/12/14 08:36:55;;;;;;;16.70;11.50;;;;;;;6.06;66.93;96311.50;5086924;28;20483;-69
2020/12/14 08:39:20;;;;;;;15.80;11.20;;;;;;;6.11;66.40;96324.06;5056638;28;20486;-70
2020/12/14 08:41:46;;;;;;;15.73;10.90;;;;;;;6.25;65.67;96320.13;5075350;28;20231;-69
2020/12/14 08:44:19;;;;;;;16.20;10.70;;;;;;;6.13;65.97;96322.16;5076471;28;20209;-70
2020/12/14 08:46:45;;;;;;;16.03;11.27;;;;;;;6.22;65.40;96326.47;5073764;28;20320;-70
2020/12/14 08:49:10;;;;;;;15.47;10.50;;;;;;;6.33;65.35;96327.22;5076080;28;20463;-70
2020/12/14 08:51:36;;;;;;;14.53;10.90;;;;;;;6.19;65.54;96334.56;5072587;28;20175;-70
2020/12/14 08:54:16;;;;;;;14.27;10.40;;;;;;;6.40;65.35;96328.28;5072783;28;20718;-70
2020/12/14 08:56:43;;;;;;;16.80;11.43;;;;;;;6.48;65.19;96337.97;5056701;28;20178;-71
2020/12/14 08:59:16;;;;;;;17.30;11.30;;;;;;;6.44;65.33;96340.03;5072748;28;20461;-69
2020/12/14 09:02:08;;;;;;;15.47;10.47;;;;;;;6.63;65.00;96338.25;5069543;28;20497;-69
2020/12/14 09:04:36;;;;;;;14.57;10.00;;;;;;;6.59;64.82;96338.53;5061799;28;20450;-70
2020/12/14 09:07:06;;;;;;;15.87;10.90;;;;;;;6.77;64.48;96355.97;5052889;28;20432;-70
2020/12/14 09:09:38;;;;;;;15.30;10.43;;;;;;;6.81;63.96;96346.06;5073528;28;20926;-69
2020/12/14 09:12:12;;;;;;;14.77;10.40;;;;;;;6.87;63.91;96342.84;5072222;28;20433;-69
2020/12/14 09:14:38;;;;;;;14.97;10.20;;;;;;;6.97;63.64;96345.38;5071210;28;20868;-70
2020/12/14 09:17:11;;;;;;;16.43;10.10;;;;;;;6.85;64.10;96348.22;5073036;28;20429;-68
2020/12/14 09:19:37;;;;;;;13.97;10.07;;;;;;;6.97;63.74;96351.41;5055415;28;20178;-68
2020/12/14 09:22:03;;;;;;;13.63;9.90;;;;;;;7.12;63.38;96356.91;5071637;28;20443;-70
2020/12/14 09:24:35;;;;;;;12.07;9.67;;;;;;;7.29;62.46;96359.63;5037191;28;20468;-71
2020/12/14 09:27:07;;;;;;;11.37;8.63;;;;;;;7.43;62.28;96351.25;5075961;28;20657;-70
2020/12/14 09:29:33;;;;;;;13.30;10.10;;;;;;;7.42;62.71;96354.84;5072133;28;20428;-71
2020/12/14 09:32:00;;;;;;;12.93;9.70;;;;;;;7.44;62.02;96355.47;5072163;28;20884;-69
2020/12/14 09:34:26;;;;;;;12.87;9.13;;;;;;;7.68;60.79;96360.03;5066824;28;21146;-70
2020/12/14 09:36:56;;;;;;;19.30;10.23;;;;;;;7.70;61.36;96354.66;5069147;28;20508;-69
2020/12/14 09:39:23;;;;;;;14.20;9.80;;;;;;;7.73;61.55;96356.97;5073471;28;20202;-69
2020/12/14 09:41:49;;;;;;;15.03;10.07;;;;;;;7.90;61.44;96357.84;5067614;28;21020;-70
2020/12/14 09:44:15;;;;;;;13.93;9.70;;;;;;;8.00;60.94;96352.53;5031853;28;20462;-68
2020/12/14 09:46:41;;;;;;;11.87;9.50;;;;;;;8.07;60.60;96356.13;5041845;28;20828;-69
2020/12/14 09:49:07;;;;;;;12.87;8.93;;;;;;;8.18;60.09;96356.84;5055051;28;20504;-68
2020/12/14 09:51:34;;;;;;;12.17;9.13;;;;;;;8.34;59.53;96358.69;5049894;28;20284;-71
2020/12/14 09:54:00;;;;;;;14.43;9.30;;;;;;;8.30;59.48;96359.00;5051013;28;20766;-68
2020/12/14 09:56:26;;;;;;;13.77;9.70;;;;;;;8.50;59.23;96357.94;5048808;28;20521;-69
2020/12/14 09:58:51;;;;;;;10.50;8.63;;;;;;;8.73;59.19;96353.72;5049396;28;20861;-69
2020/12/14 10:01:17;;;;;;;11.63;9.17;;;;;;;8.88;58.00;96350.47;5047530;28;20214;-70
2020/12/14 10:03:43;;;;;;;11.70;9.20;;;;;;;8.91;58.11;96350.16;5047147;28;20207;-69
2020/12/14 10:06:13;;;;;;;11.43;8.90;;;;;;;9.00;58.11;96353.59;5064132;28;20272;-69
2020/12/14 10:08:39;;;;;;;18.73;10.40;;;;;;;9.25;58.07;96364.03;5063781;28;20182;-68
2020/12/14 10:11:07;;;;;;;13.10;9.00;;;;;;;9.44;57.91;96350.63;5064226;28;20913;-69
2020/12/14 10:13:33;;;;;;;10.77;8.43;;;;;;;9.59;57.18;96347.31;5072281;28;20797;-68
2020/12/14 10:15:58;;;;;;;12.17;8.23;;;;;;;9.46;56.72;96343.41;5070614;28;20417;-68
2020/12/14 10:18:24;;;;;;;11.63;8.00;;;;;;;9.67;56.64;96340.28;5067836;28;20312;-68
2020/12/14 10:20:50;;;;;;;10.67;8.57;;;;;;;9.68;56.63;96341.91;5069676;28;20231;-68
2020/12/14 10:23:15;;;;;;;10.97;8.20;;;;;;;9.78;56.71;96341.69;5070047;28;20445;-69
2020/12/14 10:25:42;;;;;;;9.43;7.77;;;;;;;9.96;56.48;96343.28;5071874;28;20182;-68
2020/12/14 10:28:08;;;;;;;10.63;8.17;;;;;;;9.99;56.04;96333.28;5071673;28;20726;-68
2020/12/14 10:30:34;;;;;;;10.87;8.50;;;;;;;10.16;55.37;96338.47;5071969;28;20428;-69
2020/12/14 10:33:00;;;;;;;11.77;8.57;;;;;;;9.88;55.17;96340.72;5069884;28;20445;-70
2020/12/14 10:35:25;;;;;;;9.70;8.10;;;;;;;10.14;55.07;96337.81;5066849;28;20550;-70
2020/12/14 10:37:51;;;;;;;10.47;8.23;;;;;;;10.19;54.63;96335.50;5070070;28;20424;-70
2020/12/14 10:40:17;;;;;;;16.43;8.27;;;;;;;10.19;54.71;96330.28;5072468;28;20186;-70
2020/12/14 10:42:43;;;;;;;10.97;7.67;;;;;;;10.31;54.55;96330.69;5076892;28;20202;-69
2020/12/14 10:45:09;;;;;;;11.37;7.60;;;;;;;10.34;54.22;96325.13;5070299;28;20194;-70
2020/12/14 10:47:36;;;;;;;9.50;7.87;;;;;;;10.18;54.06;96318.16;5073413;28;20421;-69
2020/12/14 10:50:03;;;;;;;8.60;7.13;;;;;;;10.26;54.18;96320.72;5072909;28;20444;-69
2020/12/14 10:52:28;;;;;;;9.47;7.53;;;;;;;10.39;53.86;96317.59;5067533;28;20449;-68
2020/12/14 10:54:54;;;;;;;11.07;7.87;;;;;;;10.20;53.67;96329.28;5069966;28;20965;-68
2020/12/14 10:57:20;;;;;;;11.00;8.07;;;;;;;10.06;54.61;96317.72;5071947;28;20178;-70
2020/12/14 10:59:46;;;;;;;11.40;7.83;;;;;;;9.97;54.50;96324.78;5071487;28;20551;-70
2020/12/14 11:02:11;;;;;;;11.37;8.57;;;;;;;9.97;54.82;96308.28;5057702;28;20421;-72
2020/12/14 11:04:38;;;;;;;9.20;7.20;;;;;;;9.58;54.70;96325.56;5042270;28;20211;-70
2020/12/14 11:07:07;;;;;;;12.03;7.60;;;;;;;9.97;54.66;96316.94;5069914;28;20197;-69
2020/12/14 11:09:34;;;;;;;9.80;7.40;;;;;;;10.19;54.54;96316.34;5069539;28;20864;-70
2020/12/14 11:12:01;;;;;;;10.83;7.53;;;;;;;10.04;54.27;96303.16;5068729;28;20905;-69
2020/12/14 11:14:27;;;;;;;9.23;7.20;;;;;;;10.40;53.93;96307.91;5067949;28;20444;-68
2020/12/14 11:16:55;;;;;;;9.00;7.50;;;;;;;10.58;53.27;96300.63;5069512;28;20436;-70
2020/12/14 11:19:21;;;;;;;9.07;6.90;;;;;;;10.53;52.95;96300.31;5069820;28;20717;-70
2020/12/14 11:21:55;;;;;;;9.83;8.03;;;;;;;10.66;53.40;96296.28;5070120;28;20433;-70
2020/12/14 11:24:22;;;;;;;8.30;7.00;;;;;;;10.81;52.86;96305.03;5070135;28;20198;-69
2020/12/14 11:26:49;;;;;;;11.10;7.60;;;;;;;10.89;52.79;96297.09;5071768;28;20819;-69
2020/12/14 11:29:15;;;;;;;9.30;7.00;;;;;;;10.83;52.49;96292.56;5071748;28;20421;-69
2020/12/14 11:31:42;;;;;;;7.80;6.03;;;;;;;10.91;53.16;96302.97;5071352;28;20425;-69
2020/12/14 11:34:07;;;;;;;10.50;7.13;;;;;;;10.99;52.47;96306.50;5071009;28;20448;-70
2020/12/14 11:36:33;;;;;;;8.33;6.30;;;;;;;11.12;52.74;96301.47;5066988;28;20425;-69